sensor_id;sensor_type;location;lat;lon;timestamp;P1;durP1;ratioP1;P2;durP2;ratioP2
5754;SDS011;2902;42.130;24.732;2024-03-29T00:00:19;13.67;;;4.30;;
5754;SDS011;2902;42.130;24.732;2024-03-29T00:02:45;11.90;;;4.40;;
5754;SDS011;2902;42.130;24.732;2024-03-29T00:05:11;15.73;;;4.47;;
5754;SDS011;2902;42.130;24.732;2024-03-29T00:07:36;15.40;;;4.23;;
5754;SDS011;2902;42.130;24.732;2024-03-29T00:10:03;14.70;;;4.80;;
5754;SDS011;2902;42.130;24.732;2024-03-29T00:12:30;11.37;;;3.97;;
5754;SDS011;2902;42.130;24.732;2024-03-29T00:14:55;11.73;;;4.00;;
5754;SDS011;2902;42.130;24.732;2024-03-29T00:17:21;11.70;;;4.20;;
5754;SDS011;2902;42.130;24.732;2024-03-29T00:19:47;13.93;;;4.40;;
5754;SDS011;2902;42.130;24.732;2024-03-29T00:22:13;13.20;;;4.30;;
5754;SDS011;2902;42.130;24.732;2024-03-29T00:24:38;14.87;;;4.60;;
5754;SDS011;2902;42.130;24.732;2024-03-29T00:27:06;13.40;;;4.67;;
5754;SDS011;2902;42.130;24.732;2024-03-29T00:29:31;12.10;;;4.73;;
5754;SDS011;2902;42.130;24.732;2024-03-29T00:31:57;20.13;;;4.33;;
5754;SDS011;2902;42.130;24.732;2024-03-29T00:34:23;17.70;;;4.23;;
5754;SDS011;2902;42.130;24.732;2024-03-29T00:36:49;17.33;;;4.47;;
5754;SDS011;2902;42.130;24.732;2024-03-29T00:39:15;17.93;;;4.53;;
5754;SDS011;2902;42.130;24.732;2024-03-29T00:41:40;14.50;;;4.43;;
5754;SDS011;2902;42.130;24.732;2024-03-29T00:44:07;9.40;;;3.70;;
5754;SDS011;2902;42.130;24.732;2024-03-29T00:46:33;16.30;;;4.80;;
5754;SDS011;2902;42.130;24.732;2024-03-29T00:48:59;15.27;;;4.57;;
5754;SDS011;2902;42.130;24.732;2024-03-29T00:51:25;12.03;;;4.43;;
5754;SDS011;2902;42.130;24.732;2024-03-29T00:53:50;12.53;;;4.77;;
5754;SDS011;2902;42.130;24.732;2024-03-29T00:56:16;21.73;;;4.70;;
5754;SDS011;2902;42.130;24.732;2024-03-29T00:58:42;11.83;;;4.17;;
5754;SDS011;2902;42.130;24.732;2024-03-29T01:01:09;14.03;;;4.67;;
5754;SDS011;2902;42.130;24.732;2024-03-29T01:03:35;11.60;;;4.67;;
5754;SDS011;2902;42.130;24.732;2024-03-29T01:06:00;12.60;;;4.83;;
5754;SDS011;2902;42.130;24.732;2024-03-29T01:08:26;17.20;;;4.40;;
5754;SDS011;2902;42.130;24.732;2024-03-29T01:10:52;20.97;;;4.00;;
5754;SDS011;2902;42.130;24.732;2024-03-29T01:13:17;14.50;;;3.97;;
5754;SDS011;2902;42.130;24.732;2024-03-29T01:15:44;14.83;;;4.73;;
5754;SDS011;2902;42.130;24.732;2024-03-29T01:18:11;16.90;;;4.10;;
5754;SDS011;2902;42.130;24.732;2024-03-29T01:20:36;15.80;;;3.93;;
5754;SDS011;2902;42.130;24.732;2024-03-29T01:23:02;17.60;;;5.17;;
5754;SDS011;2902;42.130;24.732;2024-03-29T01:25:28;15.13;;;4.57;;
5754;SDS011;2902;42.130;24.732;2024-03-29T01:27:54;12.63;;;3.90;;
5754;SDS011;2902;42.130;24.732;2024-03-29T01:30:20;13.27;;;4.27;;
5754;SDS011;2902;42.130;24.732;2024-03-29T01:32:45;11.00;;;3.47;;
5754;SDS011;2902;42.130;24.732;2024-03-29T01:35:13;7.87;;;3.23;;
5754;SDS011;2902;42.130;24.732;2024-03-29T01:37:38;7.60;;;3.03;;
5754;SDS011;2902;42.130;24.732;2024-03-29T01:40:04;8.50;;;2.60;;
5754;SDS011;2902;42.130;24.732;2024-03-29T01:42:31;10.60;;;3.17;;
5754;SDS011;2902;42.130;24.732;2024-03-29T01:44:57;8.83;;;2.53;;
5754;SDS011;2902;42.130;24.732;2024-03-29T01:47:24;9.37;;;2.90;;
5754;SDS011;2902;42.130;24.732;2024-03-29T01:49:51;8.90;;;2.80;;
5754;SDS011;2902;42.130;24.732;2024-03-29T01:52:19;6.77;;;2.63;;
5754;SDS011;2902;42.130;24.732;2024-03-29T01:54:46;14.50;;;2.97;;
5754;SDS011;2902;42.130;24.732;2024-03-29T01:57:15;8.10;;;2.90;;
5754;SDS011;2902;42.130;24.732;2024-03-29T01:59:42;10.17;;;3.03;;
5754;SDS011;2902;42.130;24.732;2024-03-29T02:02:11;8.03;;;3.17;;
5754;SDS011;2902;42.130;24.732;2024-03-29T02:04:38;8.40;;;3.63;;
5754;SDS011;2902;42.130;24.732;2024-03-29T02:07:04;11.80;;;3.77;;
5754;SDS011;2902;42.130;24.732;2024-03-29T02:09:33;9.87;;;3.37;;
5754;SDS011;2902;42.130;24.732;2024-03-29T02:12:00;11.00;;;2.73;;
5754;SDS011;2902;42.130;24.732;2024-03-29T02:14:27;16.93;;;3.03;;
5754;SDS011;2902;42.130;24.732;2024-03-29T02:16:53;8.43;;;3.40;;
5754;SDS011;2902;42.130;24.732;2024-03-29T02:19:20;12.83;;;3.07;;
5754;SDS011;2902;42.130;24.732;2024-03-29T02:21:47;8.80;;;3.53;;
5754;SDS011;2902;42.130;24.732;2024-03-29T02:24:17;11.83;;;4.10;;
5754;SDS011;2902;42.130;24.732;2024-03-29T02:26:44;8.47;;;3.70;;
5754;SDS011;2902;42.130;24.732;2024-03-29T02:29:12;9.40;;;3.63;;
5754;SDS011;2902;42.130;24.732;2024-03-29T02:31:38;7.80;;;3.30;;
5754;SDS011;2902;42.130;24.732;2024-03-29T02:34:05;7.13;;;3.47;;
5754;SDS011;2902;42.130;24.732;2024-03-29T02:36:33;11.47;;;4.30;;
5754;SDS011;2902;42.130;24.732;2024-03-29T02:38:59;10.17;;;3.23;;
5754;SDS011;2902;42.130;24.732;2024-03-29T02:41:27;4.87;;;2.80;;
5754;SDS011;2902;42.130;24.732;2024-03-29T02:43:55;7.20;;;2.90;;
5754;SDS011;2902;42.130;24.732;2024-03-29T02:46:22;15.13;;;3.00;;
5754;SDS011;2902;42.130;24.732;2024-03-29T02:48:49;10.13;;;3.87;;
5754;SDS011;2902;42.130;24.732;2024-03-29T02:51:15;7.50;;;2.67;;
5754;SDS011;2902;42.130;24.732;2024-03-29T02:53:42;12.53;;;3.00;;
5754;SDS011;2902;42.130;24.732;2024-03-29T02:56:07;19.30;;;4.07;;
5754;SDS011;2902;42.130;24.732;2024-03-29T02:58:36;6.70;;;3.77;;
5754;SDS011;2902;42.130;24.732;2024-03-29T03:01:05;11.87;;;3.97;;
5754;SDS011;2902;42.130;24.732;2024-03-29T03:03:32;8.93;;;3.93;;
5754;SDS011;2902;42.130;24.732;2024-03-29T03:05:58;12.90;;;3.60;;
5754;SDS011;2902;42.130;24.732;2024-03-29T03:08:25;13.47;;;3.63;;
5754;SDS011;2902;42.130;24.732;2024-03-29T03:11:09;13.70;;;3.27;;
5754;SDS011;2902;42.130;24.732;2024-03-29T03:13:37;12.30;;;3.40;;
5754;SDS011;2902;42.130;24.732;2024-03-29T03:16:04;8.07;;;3.20;;
5754;SDS011;2902;42.130;24.732;2024-03-29T03:18:31;10.53;;;2.73;;
5754;SDS011;2902;42.130;24.732;2024-03-29T03:20:56;17.67;;;3.77;;
5754;SDS011;2902;42.130;24.732;2024-03-29T03:23:23;6.57;;;2.97;;
5754;SDS011;2902;42.130;24.732;2024-03-29T03:25:53;11.00;;;2.87;;
5754;SDS011;2902;42.130;24.732;2024-03-29T03:28:19;14.90;;;3.43;;
5754;SDS011;2902;42.130;24.732;2024-03-29T03:30:48;8.77;;;2.93;;
5754;SDS011;2902;42.130;24.732;2024-03-29T03:33:13;7.80;;;3.33;;
5754;SDS011;2902;42.130;24.732;2024-03-29T03:35:41;7.60;;;3.13;;
5754;SDS011;2902;42.130;24.732;2024-03-29T03:38:06;9.53;;;3.33;;
5754;SDS011;2902;42.130;24.732;2024-03-29T03:40:33;10.60;;;2.97;;
5754;SDS011;2902;42.130;24.732;2024-03-29T03:43:00;8.37;;;2.73;;
5754;SDS011;2902;42.130;24.732;2024-03-29T03:45:27;7.70;;;2.67;;
5754;SDS011;2902;42.130;24.732;2024-03-29T03:47:54;6.50;;;1.80;;
5754;SDS011;2902;42.130;24.732;2024-03-29T03:50:21;12.40;;;2.43;;
5754;SDS011;2902;42.130;24.732;2024-03-29T03:52:46;5.13;;;2.63;;
5754;SDS011;2902;42.130;24.732;2024-03-29T03:55:13;6.00;;;2.20;;
5754;SDS011;2902;42.130;24.732;2024-03-29T03:57:39;4.63;;;1.80;;
5754;SDS011;2902;42.130;24.732;2024-03-29T04:00:06;7.50;;;2.60;;
5754;SDS011;2902;42.130;24.732;2024-03-29T04:02:32;7.27;;;1.97;;
5754;SDS011;2902;42.130;24.732;2024-03-29T04:05:00;5.00;;;2.33;;
5754;SDS011;2902;42.130;24.732;2024-03-29T04:07:26;10.33;;;3.63;;
5754;SDS011;2902;42.130;24.732;2024-03-29T04:09:53;5.10;;;2.00;;
5754;SDS011;2902;42.130;24.732;2024-03-29T04:12:18;9.27;;;2.63;;
5754;SDS011;2902;42.130;24.732;2024-03-29T04:14:45;8.13;;;2.90;;
5754;SDS011;2902;42.130;24.732;2024-03-29T04:17:11;8.63;;;2.90;;
5754;SDS011;2902;42.130;24.732;2024-03-29T04:19:38;3.63;;;2.07;;
5754;SDS011;2902;42.130;24.732;2024-03-29T04:22:05;7.10;;;2.37;;
5754;SDS011;2902;42.130;24.732;2024-03-29T04:24:32;6.90;;;2.63;;
5754;SDS011;2902;42.130;24.732;2024-03-29T04:26:57;6.07;;;2.23;;
5754;SDS011;2902;42.130;24.732;2024-03-29T04:29:24;9.23;;;2.20;;
5754;SDS011;2902;42.130;24.732;2024-03-29T04:31:50;8.07;;;2.30;;
5754;SDS011;2902;42.130;24.732;2024-03-29T04:34:16;11.63;;;4.07;;
5754;SDS011;2902;42.130;24.732;2024-03-29T04:36:42;4.30;;;1.67;;
5754;SDS011;2902;42.130;24.732;2024-03-29T04:39:10;4.33;;;1.93;;
5754;SDS011;2902;42.130;24.732;2024-03-29T04:41:37;8.47;;;2.30;;
5754;SDS011;2902;42.130;24.732;2024-03-29T04:44:04;5.67;;;1.70;;
5754;SDS011;2902;42.130;24.732;2024-03-29T04:46:33;3.87;;;1.60;;
5754;SDS011;2902;42.130;24.732;2024-03-29T04:48:59;5.80;;;2.13;;
5754;SDS011;2902;42.130;24.732;2024-03-29T04:51:26;6.27;;;2.27;;
5754;SDS011;2902;42.130;24.732;2024-03-29T04:53:53;11.57;;;2.27;;
5754;SDS011;2902;42.130;24.732;2024-03-29T04:56:21;8.23;;;1.90;;
5754;SDS011;2902;42.130;24.732;2024-03-29T04:58:48;3.77;;;1.90;;
5754;SDS011;2902;42.130;24.732;2024-03-29T05:01:14;6.60;;;1.70;;
5754;SDS011;2902;42.130;24.732;2024-03-29T05:03:41;10.60;;;2.20;;
5754;SDS011;2902;42.130;24.732;2024-03-29T05:06:08;6.17;;;2.27;;
5754;SDS011;2902;42.130;24.732;2024-03-29T05:08:34;4.80;;;1.83;;
5754;SDS011;2902;42.130;24.732;2024-03-29T05:11:02;6.27;;;2.10;;
5754;SDS011;2902;42.130;24.732;2024-03-29T05:13:30;5.57;;;2.30;;
5754;SDS011;2902;42.130;24.732;2024-03-29T05:15:57;11.87;;;1.67;;
5754;SDS011;2902;42.130;24.732;2024-03-29T05:18:24;4.20;;;1.80;;
5754;SDS011;2902;42.130;24.732;2024-03-29T05:20:50;5.07;;;2.40;;
5754;SDS011;2902;42.130;24.732;2024-03-29T05:23:17;5.00;;;2.27;;
5754;SDS011;2902;42.130;24.732;2024-03-29T05:25:44;3.40;;;1.77;;
5754;SDS011;2902;42.130;24.732;2024-03-29T05:28:13;2.83;;;1.47;;
5754;SDS011;2902;42.130;24.732;2024-03-29T05:30:41;6.27;;;1.63;;
5754;SDS011;2902;42.130;24.732;2024-03-29T05:33:09;4.77;;;1.73;;
5754;SDS011;2902;42.130;24.732;2024-03-29T05:35:36;38.27;;;4.50;;
5754;SDS011;2902;42.130;24.732;2024-03-29T05:38:02;9.60;;;2.37;;
5754;SDS011;2902;42.130;24.732;2024-03-29T05:40:29;5.63;;;1.87;;
5754;SDS011;2902;42.130;24.732;2024-03-29T05:42:56;18.70;;;2.90;;
5754;SDS011;2902;42.130;24.732;2024-03-29T05:45:24;4.97;;;1.80;;
5754;SDS011;2902;42.130;24.732;2024-03-29T05:47:54;8.43;;;2.03;;
5754;SDS011;2902;42.130;24.732;2024-03-29T05:50:23;5.00;;;1.77;;
5754;SDS011;2902;42.130;24.732;2024-03-29T05:52:50;13.63;;;2.57;;
5754;SDS011;2902;42.130;24.732;2024-03-29T05:55:17;7.10;;;1.90;;
5754;SDS011;2902;42.130;24.732;2024-03-29T05:57:44;12.13;;;2.40;;
5754;SDS011;2902;42.130;24.732;2024-03-29T06:00:12;4.20;;;2.00;;
5754;SDS011;2902;42.130;24.732;2024-03-29T06:02:41;13.50;;;2.53;;
5754;SDS011;2902;42.130;24.732;2024-03-29T06:05:11;9.33;;;2.07;;
5754;SDS011;2902;42.130;24.732;2024-03-29T06:07:38;4.53;;;1.90;;
5754;SDS011;2902;42.130;24.732;2024-03-29T06:10:05;12.03;;;2.00;;
5754;SDS011;2902;42.130;24.732;2024-03-29T06:12:34;6.57;;;1.80;;
5754;SDS011;2902;42.130;24.732;2024-03-29T06:15:03;4.67;;;2.30;;
5754;SDS011;2902;42.130;24.732;2024-03-29T06:17:48;8.47;;;1.80;;
5754;SDS011;2902;42.130;24.732;2024-03-29T06:20:17;6.33;;;2.40;;
5754;SDS011;2902;42.130;24.732;2024-03-29T06:22:43;13.90;;;2.07;;
5754;SDS011;2902;42.130;24.732;2024-03-29T06:25:13;31.97;;;3.80;;
5754;SDS011;2902;42.130;24.732;2024-03-29T06:27:40;9.27;;;1.80;;
5754;SDS011;2902;42.130;24.732;2024-03-29T06:30:08;5.03;;;1.60;;
5754;SDS011;2902;42.130;24.732;2024-03-29T06:32:35;4.23;;;1.70;;
5754;SDS011;2902;42.130;24.732;2024-03-29T06:35:02;3.47;;;1.60;;
5754;SDS011;2902;42.130;24.732;2024-03-29T06:37:31;10.00;;;1.90;;
5754;SDS011;2902;42.130;24.732;2024-03-29T06:39:58;20.17;;;2.87;;
5754;SDS011;2902;42.130;24.732;2024-03-29T06:42:24;13.63;;;1.63;;
5754;SDS011;2902;42.130;24.732;2024-03-29T06:44:51;3.20;;;1.60;;
5754;SDS011;2902;42.130;24.732;2024-03-29T06:47:19;4.20;;;1.60;;
5754;SDS011;2902;42.130;24.732;2024-03-29T06:49:46;8.23;;;1.57;;
5754;SDS011;2902;42.130;24.732;2024-03-29T06:52:13;21.33;;;2.50;;
5754;SDS011;2902;42.130;24.732;2024-03-29T06:54:41;5.67;;;1.20;;
5754;SDS011;2902;42.130;24.732;2024-03-29T06:57:08;3.33;;;1.00;;
5754;SDS011;2902;42.130;24.732;2024-03-29T06:59:37;4.23;;;1.17;;
5754;SDS011;2902;42.130;24.732;2024-03-29T07:02:04;4.23;;;1.20;;
5754;SDS011;2902;42.130;24.732;2024-03-29T07:04:31;11.50;;;2.10;;
5754;SDS011;2902;42.130;24.732;2024-03-29T07:06:58;7.60;;;1.43;;
5754;SDS011;2902;42.130;24.732;2024-03-29T07:09:25;6.73;;;1.57;;
5754;SDS011;2902;42.130;24.732;2024-03-29T07:11:53;10.00;;;2.13;;
5754;SDS011;2902;42.130;24.732;2024-03-29T07:14:20;2.90;;;1.10;;
5754;SDS011;2902;42.130;24.732;2024-03-29T07:16:48;4.50;;;1.10;;
5754;SDS011;2902;42.130;24.732;2024-03-29T07:19:15;5.60;;;1.20;;
5754;SDS011;2902;42.130;24.732;2024-03-29T07:21:42;27.83;;;2.50;;
5754;SDS011;2902;42.130;24.732;2024-03-29T07:24:09;8.90;;;1.87;;
5754;SDS011;2902;42.130;24.732;2024-03-29T07:26:36;7.33;;;1.70;;
5754;SDS011;2902;42.130;24.732;2024-03-29T07:29:04;14.37;;;2.10;;
5754;SDS011;2902;42.130;24.732;2024-03-29T07:31:31;2.33;;;1.03;;
5754;SDS011;2902;42.130;24.732;2024-03-29T07:33:58;17.73;;;2.07;;
5754;SDS011;2902;42.130;24.732;2024-03-29T07:36:25;11.33;;;1.67;;
5754;SDS011;2902;42.130;24.732;2024-03-29T07:38:56;6.03;;;1.47;;
5754;SDS011;2902;42.130;24.732;2024-03-29T07:41:23;4.07;;;1.17;;
5754;SDS011;2902;42.130;24.732;2024-03-29T07:43:52;2.10;;;1.00;;
5754;SDS011;2902;42.130;24.732;2024-03-29T07:46:23;13.73;;;1.87;;
5754;SDS011;2902;42.130;24.732;2024-03-29T07:48:49;8.80;;;1.57;;
5754;SDS011;2902;42.130;24.732;2024-03-29T07:51:15;6.07;;;1.40;;
5754;SDS011;2902;42.130;24.732;2024-03-29T07:53:42;3.90;;;1.80;;
5754;SDS011;2902;42.130;24.732;2024-03-29T07:56:09;2.10;;;0.90;;
5754;SDS011;2902;42.130;24.732;2024-03-29T07:58:35;3.83;;;1.13;;
5754;SDS011;2902;42.130;24.732;2024-03-29T08:01:02;8.10;;;1.67;;
5754;SDS011;2902;42.130;24.732;2024-03-29T08:03:30;3.47;;;0.97;;
5754;SDS011;2902;42.130;24.732;2024-03-29T08:05:59;5.83;;;1.43;;
5754;SDS011;2902;42.130;24.732;2024-03-29T08:08:29;11.63;;;1.20;;
5754;SDS011;2902;42.130;24.732;2024-03-29T08:10:56;5.90;;;1.50;;
5754;SDS011;2902;42.130;24.732;2024-03-29T08:13:23;13.83;;;1.70;;
5754;SDS011;2902;42.130;24.732;2024-03-29T08:15:55;4.10;;;1.30;;
5754;SDS011;2902;42.130;24.732;2024-03-29T08:18:22;13.90;;;2.10;;
5754;SDS011;2902;42.130;24.732;2024-03-29T08:20:51;5.67;;;1.93;;
5754;SDS011;2902;42.130;24.732;2024-03-29T08:23:17;6.37;;;1.40;;
5754;SDS011;2902;42.130;24.732;2024-03-29T08:25:44;9.03;;;1.83;;
5754;SDS011;2902;42.130;24.732;2024-03-29T08:28:11;5.70;;;1.77;;
5754;SDS011;2902;42.130;24.732;2024-03-29T08:30:37;3.53;;;1.20;;
5754;SDS011;2902;42.130;24.732;2024-03-29T08:33:04;4.30;;;1.40;;
5754;SDS011;2902;42.130;24.732;2024-03-29T08:35:32;4.83;;;1.33;;
5754;SDS011;2902;42.130;24.732;2024-03-29T08:38:00;5.03;;;1.53;;
5754;SDS011;2902;42.130;24.732;2024-03-29T08:40:28;3.00;;;1.77;;
5754;SDS011;2902;42.130;24.732;2024-03-29T08:42:57;2.50;;;1.50;;
5754;SDS011;2902;42.130;24.732;2024-03-29T08:45:24;5.00;;;1.70;;
5754;SDS011;2902;42.130;24.732;2024-03-29T08:47:50;8.27;;;2.40;;
5754;SDS011;2902;42.130;24.732;2024-03-29T08:50:18;3.07;;;1.50;;
5754;SDS011;2902;42.130;24.732;2024-03-29T08:52:44;4.73;;;2.17;;
5754;SDS011;2902;42.130;24.732;2024-03-29T08:55:13;4.17;;;1.30;;
5754;SDS011;2902;42.130;24.732;2024-03-29T08:57:39;5.73;;;1.10;;
5754;SDS011;2902;42.130;24.732;2024-03-29T09:00:08;3.47;;;1.20;;
5754;SDS011;2902;42.130;24.732;2024-03-29T09:02:35;5.27;;;1.40;;
5754;SDS011;2902;42.130;24.732;2024-03-29T09:05:02;6.73;;;1.90;;
5754;SDS011;2902;42.130;24.732;2024-03-29T09:07:29;3.43;;;1.00;;
5754;SDS011;2902;42.130;24.732;2024-03-29T09:09:55;28.57;;;2.93;;
5754;SDS011;2902;42.130;24.732;2024-03-29T09:12:23;4.40;;;1.00;;
5754;SDS011;2902;42.130;24.732;2024-03-29T09:14:51;10.10;;;2.13;;
5754;SDS011;2902;42.130;24.732;2024-03-29T09:17:18;4.50;;;1.57;;
5754;SDS011;2902;42.130;24.732;2024-03-29T09:19:48;5.60;;;1.67;;
5754;SDS011;2902;42.130;24.732;2024-03-29T09:22:15;4.97;;;1.00;;
5754;SDS011;2902;42.130;24.732;2024-03-29T09:24:42;4.17;;;1.30;;
5754;SDS011;2902;42.130;24.732;2024-03-29T09:27:09;8.43;;;1.23;;
5754;SDS011;2902;42.130;24.732;2024-03-29T09:29:37;13.70;;;2.30;;
5754;SDS011;2902;42.130;24.732;2024-03-29T09:32:04;2.53;;;1.00;;
5754;SDS011;2902;42.130;24.732;2024-03-29T09:34:30;2.93;;;0.90;;
5754;SDS011;2902;42.130;24.732;2024-03-29T09:36:57;1.77;;;0.97;;
5754;SDS011;2902;42.130;24.732;2024-03-29T09:39:24;5.83;;;1.20;;
5754;SDS011;2902;42.130;24.732;2024-03-29T09:41:51;4.10;;;1.07;;
5754;SDS011;2902;42.130;24.732;2024-03-29T09:44:22;1.27;;;0.90;;
5754;SDS011;2902;42.130;24.732;2024-03-29T09:46:51;8.27;;;1.50;;
5754;SDS011;2902;42.130;24.732;2024-03-29T09:49:19;1.53;;;1.17;;
5754;SDS011;2902;42.130;24.732;2024-03-29T09:51:48;4.93;;;2.60;;
5754;SDS011;2902;42.130;24.732;2024-03-29T09:54:16;2.57;;;1.27;;
5754;SDS011;2902;42.130;24.732;2024-03-29T09:56:42;6.33;;;3.40;;
5754;SDS011;2902;42.130;24.732;2024-03-29T09:59:09;8.13;;;1.20;;
5754;SDS011;2902;42.130;24.732;2024-03-29T10:01:36;5.80;;;1.07;;
5754;SDS011;2902;42.130;24.732;2024-03-29T10:04:05;2.90;;;1.23;;
5754;SDS011;2902;42.130;24.732;2024-03-29T10:06:33;2.17;;;0.93;;
5754;SDS011;2902;42.130;24.732;2024-03-29T10:09:01;3.47;;;1.30;;
5754;SDS011;2902;42.130;24.732;2024-03-29T10:11:29;1.20;;;1.10;;
5754;SDS011;2902;42.130;24.732;2024-03-29T10:13:56;2.47;;;0.90;;
5754;SDS011;2902;42.130;24.732;2024-03-29T10:16:22;5.57;;;1.30;;
5754;SDS011;2902;42.130;24.732;2024-03-29T10:18:49;2.90;;;1.00;;
5754;SDS011;2902;42.130;24.732;2024-03-29T10:21:24;4.27;;;1.20;;
5754;SDS011;2902;42.130;24.732;2024-03-29T10:23:51;1.57;;;1.10;;
5754;SDS011;2902;42.130;24.732;2024-03-29T10:26:18;14.20;;;1.80;;
5754;SDS011;2902;42.130;24.732;2024-03-29T10:28:46;2.83;;;0.80;;
5754;SDS011;2902;42.130;24.732;2024-03-29T10:31:14;4.30;;;1.03;;
5754;SDS011;2902;42.130;24.732;2024-03-29T10:33:42;50.60;;;5.93;;
5754;SDS011;2902;42.130;24.732;2024-03-29T10:36:09;5.80;;;1.13;;
5754;SDS011;2902;42.130;24.732;2024-03-29T10:38:38;1.47;;;1.37;;
5754;SDS011;2902;42.130;24.732;2024-03-29T10:41:06;14.37;;;8.37;;
5754;SDS011;2902;42.130;24.732;2024-03-29T10:43:34;10.80;;;6.73;;
5754;SDS011;2902;42.130;24.732;2024-03-29T10:46:00;4.43;;;1.47;;
5754;SDS011;2902;42.130;24.732;2024-03-29T10:48:28;4.47;;;1.13;;
5754;SDS011;2902;42.130;24.732;2024-03-29T10:50:57;12.87;;;1.17;;
5754;SDS011;2902;42.130;24.732;2024-03-29T10:53:26;5.03;;;1.00;;
5754;SDS011;2902;42.130;24.732;2024-03-29T10:55:56;3.13;;;1.90;;
5754;SDS011;2902;42.130;24.732;2024-03-29T10:58:25;4.40;;;1.80;;
5754;SDS011;2902;42.130;24.732;2024-03-29T11:00:57;1.70;;;0.90;;
5754;SDS011;2902;42.130;24.732;2024-03-29T11:03:28;2.77;;;1.33;;
5754;SDS011;2902;42.130;24.732;2024-03-29T11:06:02;18.97;;;2.43;;
5754;SDS011;2902;42.130;24.732;2024-03-29T11:08:31;4.67;;;1.47;;
5754;SDS011;2902;42.130;24.732;2024-03-29T11:11:04;16.40;;;2.10;;
5754;SDS011;2902;42.130;24.732;2024-03-29T11:13:33;8.43;;;1.37;;
5754;SDS011;2902;42.130;24.732;2024-03-29T11:16:04;1.63;;;1.20;;
5754;SDS011;2902;42.130;24.732;2024-03-29T11:18:30;2.53;;;0.97;;
5754;SDS011;2902;42.130;24.732;2024-03-29T11:20:57;1.53;;;1.00;;
5754;SDS011;2902;42.130;24.732;2024-03-29T11:23:26;3.87;;;1.00;;
5754;SDS011;2902;42.130;24.732;2024-03-29T11:25:53;11.50;;;2.03;;
5754;SDS011;2902;42.130;24.732;2024-03-29T11:28:24;2.90;;;1.10;;
5754;SDS011;2902;42.130;24.732;2024-03-29T11:30:55;2.53;;;0.80;;
5754;SDS011;2902;42.130;24.732;2024-03-29T11:33:28;5.50;;;0.90;;
5754;SDS011;2902;42.130;24.732;2024-03-29T11:35:56;12.30;;;2.10;;
5754;SDS011;2902;42.130;24.732;2024-03-29T11:38:33;5.83;;;1.27;;
5754;SDS011;2902;42.130;24.732;2024-03-29T11:41:01;1.73;;;1.00;;
5754;SDS011;2902;42.130;24.732;2024-03-29T11:43:33;3.07;;;1.00;;
5754;SDS011;2902;42.130;24.732;2024-03-29T11:46:01;1.60;;;0.90;;
5754;SDS011;2902;42.130;24.732;2024-03-29T11:48:29;0.90;;;0.87;;
5754;SDS011;2902;42.130;24.732;2024-03-29T11:50:57;6.10;;;0.93;;
5754;SDS011;2902;42.130;24.732;2024-03-29T11:53:25;3.70;;;0.73;;
5754;SDS011;2902;42.130;24.732;2024-03-29T11:55:53;1.67;;;0.60;;
5754;SDS011;2902;42.130;24.732;2024-03-29T11:58:20;2.03;;;0.80;;
5754;SDS011;2902;42.130;24.732;2024-03-29T12:00:50;1.03;;;0.80;;
5754;SDS011;2902;42.130;24.732;2024-03-29T12:03:17;4.53;;;1.00;;
5754;SDS011;2902;42.130;24.732;2024-03-29T12:05:46;2.63;;;1.10;;
5754;SDS011;2902;42.130;24.732;2024-03-29T12:08:13;1.47;;;0.90;;
5754;SDS011;2902;42.130;24.732;2024-03-29T12:10:41;6.13;;;1.10;;
5754;SDS011;2902;42.130;24.732;2024-03-29T12:13:07;4.07;;;1.10;;
5754;SDS011;2902;42.130;24.732;2024-03-29T12:15:35;3.13;;;1.07;;
5754;SDS011;2902;42.130;24.732;2024-03-29T12:18:03;3.13;;;1.43;;
5754;SDS011;2902;42.130;24.732;2024-03-29T12:20:31;6.57;;;1.33;;
5754;SDS011;2902;42.130;24.732;2024-03-29T12:22:58;11.23;;;1.50;;
5754;SDS011;2902;42.130;24.732;2024-03-29T12:25:26;3.03;;;1.30;;
5754;SDS011;2902;42.130;24.732;2024-03-29T12:27:54;2.73;;;1.20;;
5754;SDS011;2902;42.130;24.732;2024-03-29T12:30:21;2.80;;;1.10;;
5754;SDS011;2902;42.130;24.732;2024-03-29T12:32:48;1.50;;;0.90;;
5754;SDS011;2902;42.130;24.732;2024-03-29T12:35:16;2.27;;;1.33;;
5754;SDS011;2902;42.130;24.732;2024-03-29T12:37:49;4.33;;;0.90;;
5754;SDS011;2902;42.130;24.732;2024-03-29T12:40:17;2.03;;;1.20;;
5754;SDS011;2902;42.130;24.732;2024-03-29T12:42:47;1.93;;;0.90;;
5754;SDS011;2902;42.130;24.732;2024-03-29T12:45:14;2.10;;;0.83;;
5754;SDS011;2902;42.130;24.732;2024-03-29T12:47:43;1.43;;;0.90;;
5754;SDS011;2902;42.130;24.732;2024-03-29T12:50:12;2.83;;;1.00;;
5754;SDS011;2902;42.130;24.732;2024-03-29T12:52:42;5.27;;;1.10;;
5754;SDS011;2902;42.130;24.732;2024-03-29T12:55:08;2.90;;;0.80;;
5754;SDS011;2902;42.130;24.732;2024-03-29T12:57:37;1.30;;;1.00;;
5754;SDS011;2902;42.130;24.732;2024-03-29T13:00:06;1.13;;;1.00;;
5754;SDS011;2902;42.130;24.732;2024-03-29T13:02:35;17.53;;;2.30;;
5754;SDS011;2902;42.130;24.732;2024-03-29T13:05:02;6.90;;;1.10;;
5754;SDS011;2902;42.130;24.732;2024-03-29T13:07:29;3.93;;;1.10;;
5754;SDS011;2902;42.130;24.732;2024-03-29T13:09:57;5.20;;;1.37;;
5754;SDS011;2902;42.130;24.732;2024-03-29T13:12:28;1.97;;;0.90;;
5754;SDS011;2902;42.130;24.732;2024-03-29T13:14:55;1.20;;;1.10;;
5754;SDS011;2902;42.130;24.732;2024-03-29T13:17:21;5.43;;;1.20;;
5754;SDS011;2902;42.130;24.732;2024-03-29T13:19:48;0.93;;;0.90;;
5754;SDS011;2902;42.130;24.732;2024-03-29T13:22:15;8.57;;;1.07;;
5754;SDS011;2902;42.130;24.732;2024-03-29T13:24:43;2.37;;;1.00;;
5754;SDS011;2902;42.130;24.732;2024-03-29T13:27:11;1.27;;;1.17;;
5754;SDS011;2902;42.130;24.732;2024-03-29T13:29:38;3.37;;;1.40;;
5754;SDS011;2902;42.130;24.732;2024-03-29T13:32:05;2.07;;;0.83;;
5754;SDS011;2902;42.130;24.732;2024-03-29T13:34:32;1.77;;;0.90;;
5754;SDS011;2902;42.130;24.732;2024-03-29T13:36:58;2.63;;;0.97;;
5754;SDS011;2902;42.130;24.732;2024-03-29T13:39:25;2.37;;;1.00;;
5754;SDS011;2902;42.130;24.732;2024-03-29T13:41:52;1.73;;;1.23;;
5754;SDS011;2902;42.130;24.732;2024-03-29T13:44:20;3.50;;;1.07;;
5754;SDS011;2902;42.130;24.732;2024-03-29T13:46:47;3.07;;;1.20;;
5754;SDS011;2902;42.130;24.732;2024-03-29T13:49:14;1.03;;;1.00;;
5754;SDS011;2902;42.130;24.732;2024-03-29T13:51:45;1.80;;;1.00;;
5754;SDS011;2902;42.130;24.732;2024-03-29T13:54:12;3.10;;;1.10;;
5754;SDS011;2902;42.130;24.732;2024-03-29T13:56:39;4.87;;;1.33;;
5754;SDS011;2902;42.130;24.732;2024-03-29T13:59:05;1.57;;;1.47;;
5754;SDS011;2902;42.130;24.732;2024-03-29T14:01:33;2.97;;;1.23;;
5754;SDS011;2902;42.130;24.732;2024-03-29T14:04:00;2.20;;;1.30;;
5754;SDS011;2902;42.130;24.732;2024-03-29T14:06:27;4.00;;;1.00;;
5754;SDS011;2902;42.130;24.732;2024-03-29T14:08:54;4.93;;;1.37;;
5754;SDS011;2902;42.130;24.732;2024-03-29T14:11:21;3.23;;;1.37;;
5754;SDS011;2902;42.130;24.732;2024-03-29T14:13:47;2.13;;;1.30;;
5754;SDS011;2902;42.130;24.732;2024-03-29T14:16:16;5.60;;;1.30;;
5754;SDS011;2902;42.130;24.732;2024-03-29T14:18:44;5.63;;;1.30;;
5754;SDS011;2902;42.130;24.732;2024-03-29T14:21:10;2.70;;;1.30;;
5754;SDS011;2902;42.130;24.732;2024-03-29T14:23:37;3.67;;;2.13;;
5754;SDS011;2902;42.130;24.732;2024-03-29T14:26:04;3.57;;;1.87;;
5754;SDS011;2902;42.130;24.732;2024-03-29T14:28:30;3.80;;;1.60;;
5754;SDS011;2902;42.130;24.732;2024-03-29T14:30:57;6.33;;;1.90;;
5754;SDS011;2902;42.130;24.732;2024-03-29T14:33:24;2.93;;;1.70;;
5754;SDS011;2902;42.130;24.732;2024-03-29T14:35:52;1.70;;;1.60;;
5754;SDS011;2902;42.130;24.732;2024-03-29T14:38:19;2.83;;;1.40;;
5754;SDS011;2902;42.130;24.732;2024-03-29T14:40:46;2.30;;;1.40;;
5754;SDS011;2902;42.130;24.732;2024-03-29T14:43:13;4.17;;;1.53;;
5754;SDS011;2902;42.130;24.732;2024-03-29T14:45:40;6.13;;;1.20;;
5754;SDS011;2902;42.130;24.732;2024-03-29T14:48:08;3.23;;;1.40;;
5754;SDS011;2902;42.130;24.732;2024-03-29T14:50:35;3.70;;;1.27;;
5754;SDS011;2902;42.130;24.732;2024-03-29T14:53:03;1.93;;;1.20;;
5754;SDS011;2902;42.130;24.732;2024-03-29T14:55:30;2.93;;;1.20;;
5754;SDS011;2902;42.130;24.732;2024-03-29T14:57:56;3.47;;;1.43;;